Cape Girardeau Regional Airport

Current Flights

Departures
Arrivals
Info
Name: Cape Girardeau Regional Airport
Identifier:  CGI/KCGI
Local Time:  18. Jun 12:39
City
Cape Girardeau
  United States

Flights per Day
6 flights
Distance: 325km (202mi)
Punctuality
68% (2 flights per day delayed)
Delay Average: 5 minutes
Current Weather
 27 C (Humidity: 61%)
  0kt (0km/h / 0mph) from 0°
  Few clouds at 2,700 feet (822 meter)
  16km (10 mi.)
 METAR KCGI 181653Z 00000KT 10SM FEW027 27/19 A2991 RMK AO2 SLP126 T02670194

Current Delays

Departures
N/A
Arrivals
N/A

Destinations

Top Destinations
Airport Flights
per week
Seats
per week
  Paducah (PAH) 26 1,236 3 176
  Chicago (ORD) 12 571 1 81
  Columbia (COU) 2 - 0 0
  St. Louis (SUS) 2 - 0 0
  Lexington (LEX) 1 - 0 0
  Springfield (SGF) 1 - 0 0
  Springdale (SPZ) 1 - 0 0
  Knoxville (TYS) 1 - 0 0
  Sevierville (GKT) 0 - 0 0
  Saint Joseph (STJ) 0 - 0 0
  Crestview (CEW) 0 - 0 0
  Kaiser/Lake Ozark (AIZ) 0 - 0 0

Airlines & Planes

Top Airlines
Airline Flights
per Day
Seats
per Day
  SkyWest Airlines 5 258
Nordwind Airlines 1 -
  Novair 1 -
  Nolinor Aviation 1 -
Jet Charter Inc ( Franklin Lakes Nj ) 0 -
  Flybe Nordic 0 -
  National Airlines 0 -
NetJets 0 0
  Britt Airways 0 3
Top Plane Types
Model Flights Seats
Bombardier CRJ200 5.2/day 241/day 241.66666666666666
Beech B200 Super King Air 0.8/day - 0
Bombardier Challenger 600 0.4/day 20/day 20
Cessna C172 0.3/day - 0
Piper PA-32R-301T Saratoga II 0.3/day - 0